createdAt,value
2016-10-03T00:00:13.191Z,0
2016-10-03T00:01:13.274Z,0
2016-10-03T00:02:13.297Z,0
2016-10-03T00:03:13.356Z,0
2016-10-03T00:04:13.424Z,0
2016-10-03T00:05:13.484Z,0
2016-10-03T00:06:13.553Z,0
2016-10-03T00:07:13.583Z,0
2016-10-03T00:08:13.672Z,0
2016-10-03T00:09:13.718Z,0
2016-10-03T00:10:13.787Z,0
2016-10-03T00:11:13.827Z,0
2016-10-03T00:12:13.875Z,0
2016-10-03T00:13:13.956Z,0
2016-10-03T00:14:14.298Z,0
2016-10-03T00:15:14.058Z,0
2016-10-03T00:16:14.104Z,0
2016-10-03T00:17:14.174Z,0
2016-10-03T00:18:14.245Z,0
2016-10-03T00:19:14.282Z,0
2016-10-03T00:20:14.340Z,0
2016-10-03T00:21:14.403Z,0
2016-10-03T00:22:14.470Z,0
2016-10-03T00:23:14.506Z,0
2016-10-03T00:24:14.559Z,0
2016-10-03T00:25:14.617Z,0
2016-10-03T00:26:14.686Z,0
2016-10-03T00:27:14.732Z,0
2016-10-03T00:28:14.798Z,0
2016-10-03T00:29:14.856Z,0
2016-10-03T00:30:14.892Z,0
2016-10-03T00:31:14.965Z,0
2016-10-03T00:32:15.015Z,0
2016-10-03T00:33:15.079Z,0
2016-10-03T00:34:15.131Z,0
2016-10-03T00:35:15.205Z,0
2016-10-03T00:36:15.253Z,0
2016-10-03T00:37:15.315Z,0
2016-10-03T00:38:15.371Z,0
2016-10-03T00:39:15.433Z,0
2016-10-03T00:40:15.491Z,0
2016-10-03T00:41:15.532Z,0
2016-10-03T00:42:15.591Z,0
2016-10-03T00:43:15.651Z,0
2016-10-03T00:44:15.726Z,0
2016-10-03T00:45:15.784Z,0
2016-10-03T00:46:15.806Z,0
2016-10-03T00:47:15.882Z,0
2016-10-03T00:48:15.915Z,0
2016-10-03T00:49:16.011Z,0
2016-10-03T00:50:16.030Z,0
2016-10-03T00:51:16.124Z,0
2016-10-03T00:52:16.152Z,0
2016-10-03T00:53:16.231Z,0
2016-10-03T00:54:16.287Z,0
2016-10-03T00:55:16.334Z,0
2016-10-03T00:56:16.395Z,0
2016-10-03T00:57:16.774Z,0
2016-10-03T00:58:16.514Z,0
2016-10-03T00:59:16.565Z,0
2016-10-03T01:00:16.630Z,0
2016-10-03T01:01:16.665Z,0
2016-10-03T01:02:16.728Z,0
2016-10-03T01:03:16.792Z,0
2016-10-03T01:04:16.853Z,0
2016-10-03T01:05:16.894Z,0
2016-10-03T01:06:16.969Z,0
2016-10-03T01:07:17.005Z,0
2016-10-03T01:08:17.056Z,0
2016-10-03T01:09:17.412Z,0
2016-10-03T01:10:17.169Z,0
2016-10-03T01:11:17.244Z,0
2016-10-03T01:12:17.290Z,0
2016-10-03T01:13:17.375Z,0
2016-10-03T01:14:17.404Z,0
2016-10-03T01:15:17.474Z,0
2016-10-03T01:16:17.543Z,0
2016-10-03T01:17:17.591Z,0
2016-10-03T01:18:17.623Z,0
2016-10-03T01:19:17.696Z,0
2016-10-03T01:20:17.753Z,0
2016-10-03T01:21:17.796Z,0
2016-10-03T01:22:17.881Z,0
2016-10-03T01:23:17.938Z,0
2016-10-03T01:24:17.980Z,0
2016-10-03T01:25:18.034Z,0
2016-10-03T01:26:18.099Z,0
2016-10-03T01:27:18.159Z,0
2016-10-03T01:28:18.194Z,0
2016-10-03T01:29:18.266Z,0
2016-10-03T01:30:18.342Z,0
2016-10-03T01:31:18.366Z,0
2016-10-03T01:32:18.427Z,0
2016-10-03T01:33:18.503Z,0
2016-10-03T01:34:18.541Z,0
2016-10-03T01:35:18.612Z,0
2016-10-03T01:36:18.663Z,0
2016-10-03T01:37:18.740Z,0
2016-10-03T01:38:18.798Z,0
2016-10-03T01:39:18.817Z,0
2016-10-03T01:40:18.904Z,0
2016-10-03T01:41:18.934Z,0
2016-10-03T01:42:19.008Z,0
2016-10-03T01:43:19.070Z,0
2016-10-03T01:44:19.111Z,0
2016-10-03T01:45:19.191Z,0
2016-10-03T01:46:19.254Z,0
2016-10-03T01:47:19.298Z,0
2016-10-03T01:48:19.363Z,0
2016-10-03T01:49:19.404Z,0
2016-10-03T01:50:19.483Z,0
2016-10-03T01:51:19.509Z,0
2016-10-03T01:52:19.569Z,0
2016-10-03T01:53:19.645Z,0
2016-10-03T01:54:19.684Z,0
2016-10-03T01:55:19.748Z,0
2016-10-03T01:56:19.822Z,0
2016-10-03T01:57:19.844Z,0
2016-10-03T01:58:19.924Z,0
2016-10-03T01:59:19.986Z,0
2016-10-03T02:00:20.032Z,0
2016-10-03T02:01:20.094Z,0
2016-10-03T02:02:20.153Z,0
2016-10-03T02:03:20.198Z,0
2016-10-03T02:04:20.257Z,0
2016-10-03T02:05:20.323Z,0
2016-10-03T02:06:20.374Z,0
2016-10-03T02:07:20.421Z,0
2016-10-03T02:08:20.472Z,0
2016-10-03T02:09:20.856Z,0
2016-10-03T02:10:20.594Z,0
2016-10-03T02:11:20.641Z,0
2016-10-03T02:12:20.734Z,0
2016-10-03T02:13:20.762Z,0
2016-10-03T02:14:20.819Z,0
2016-10-03T02:15:20.885Z,0
2016-10-03T02:16:20.936Z,0
2016-10-03T02:17:20.994Z,0
2016-10-03T02:18:21.055Z,0
2016-10-03T02:19:21.103Z,0
2016-10-03T02:20:21.167Z,0
2016-10-03T02:21:21.231Z,0
2016-10-03T02:22:21.316Z,0
2016-10-03T02:23:21.327Z,0
2016-10-03T02:24:21.401Z,0
2016-10-03T02:25:21.472Z,0
2016-10-03T02:26:21.498Z,0
2016-10-03T02:27:21.578Z,0
2016-10-03T02:28:21.635Z,0
2016-10-03T02:29:21.684Z,0
2016-10-03T02:30:21.756Z,0
2016-10-03T02:31:21.780Z,0
2016-10-03T02:32:21.848Z,0
2016-10-03T02:33:21.900Z,0
2016-10-03T02:34:21.954Z,0
2016-10-03T02:35:22.019Z,0
2016-10-03T02:36:22.066Z,0
2016-10-03T02:37:22.123Z,0
2016-10-03T02:38:22.180Z,0
2016-10-03T02:39:22.246Z,0
2016-10-03T02:40:22.299Z,0
2016-10-03T02:41:22.359Z,0
2016-10-03T02:42:22.409Z,0
2016-10-03T02:43:22.490Z,0
2016-10-03T02:44:22.515Z,0
2016-10-03T02:45:22.583Z,0
2016-10-03T02:46:22.653Z,0
2016-10-03T02:47:22.706Z,0
2016-10-03T02:48:23.054Z,0
2016-10-03T02:49:22.835Z,0
2016-10-03T02:50:22.869Z,0
2016-10-03T02:51:22.928Z,0
2016-10-03T02:52:22.968Z,0
2016-10-03T02:53:23.034Z,0
2016-10-03T02:54:23.111Z,0
2016-10-03T02:55:23.164Z,0
2016-10-03T02:56:23.213Z,0
2016-10-03T02:57:23.287Z,0
2016-10-03T02:58:23.346Z,0
2016-10-03T02:59:23.382Z,0
2016-10-03T03:00:23.447Z,0
2016-10-03T03:01:23.512Z,0
2016-10-03T03:02:23.548Z,0
2016-10-03T03:03:23.636Z,0
2016-10-03T03:04:23.670Z,0
2016-10-03T03:05:23.744Z,0
2016-10-03T03:06:23.801Z,0
2016-10-03T03:07:23.833Z,0
2016-10-03T03:08:23.900Z,0
2016-10-03T03:09:23.956Z,0
2016-10-03T03:10:24.026Z,0
2016-10-03T03:11:24.046Z,0
2016-10-03T03:12:24.132Z,0
2016-10-03T03:13:24.168Z,0
2016-10-03T03:14:24.227Z,0
2016-10-03T03:15:24.296Z,0
2016-10-03T03:16:24.352Z,0
2016-10-03T03:17:24.415Z,0
2016-10-03T03:18:24.465Z,0
2016-10-03T03:19:24.533Z,0
2016-10-03T03:20:24.595Z,0
2016-10-03T03:21:24.630Z,0
2016-10-03T03:22:24.693Z,0
2016-10-03T03:23:24.764Z,0
2016-10-03T03:24:24.806Z,0
2016-10-03T03:25:24.854Z,0
2016-10-03T03:26:24.928Z,0
2016-10-03T03:27:24.964Z,0
2016-10-03T03:28:25.033Z,0
2016-10-03T03:29:25.097Z,0
2016-10-03T03:30:25.136Z,0
2016-10-03T03:31:25.185Z,0
2016-10-03T03:32:25.258Z,0
2016-10-03T03:33:25.302Z,0
2016-10-03T03:34:25.356Z,0
2016-10-03T03:35:25.449Z,0
2016-10-03T03:36:25.503Z,0
2016-10-03T03:37:25.561Z,0
2016-10-03T03:38:25.597Z,0
2016-10-03T03:39:25.647Z,0
2016-10-03T03:40:25.707Z,0
2016-10-03T03:41:25.778Z,0
2016-10-03T03:42:25.832Z,0
2016-10-03T03:43:25.863Z,0
2016-10-03T03:44:25.933Z,0
2016-10-03T03:45:26.006Z,0
2016-10-03T03:46:26.037Z,0
2016-10-03T03:47:26.110Z,0
2016-10-03T03:48:26.163Z,0
2016-10-03T03:49:26.208Z,0
2016-10-03T03:50:26.263Z,0
2016-10-03T03:51:26.333Z,0
2016-10-03T03:52:26.382Z,0
2016-10-03T03:53:26.453Z,0
2016-10-03T03:54:26.519Z,0
2016-10-03T03:55:26.581Z,0
2016-10-03T03:56:26.620Z,0
2016-10-03T03:57:26.667Z,0
2016-10-03T03:58:26.740Z,0
2016-10-03T03:59:26.800Z,0
2016-10-03T04:00:26.859Z,0
2016-10-03T04:01:26.902Z,0
2016-10-03T04:02:26.978Z,0
2016-10-03T04:03:27.001Z,0
2016-10-03T04:04:27.073Z,0
2016-10-03T04:05:27.152Z,0
2016-10-03T04:06:27.186Z,0
2016-10-03T04:07:27.251Z,0
2016-10-03T04:08:27.285Z,0
2016-10-03T04:09:27.373Z,0
2016-10-03T04:10:27.421Z,0
2016-10-03T04:11:27.792Z,0
2016-10-03T04:12:27.523Z,0
2016-10-03T04:13:27.587Z,0
2016-10-03T04:14:27.650Z,0
2016-10-03T04:15:27.704Z,0
2016-10-03T04:16:27.770Z,0
2016-10-03T04:17:27.805Z,0
2016-10-03T04:18:27.873Z,0
2016-10-03T04:19:27.912Z,0
2016-10-03T04:20:27.991Z,0
2016-10-03T04:21:28.062Z,0
2016-10-03T04:22:28.099Z,0
2016-10-03T04:23:28.156Z,0
2016-10-03T04:24:28.216Z,0
2016-10-03T04:25:28.262Z,0
2016-10-03T04:26:28.326Z,0
2016-10-03T04:27:28.377Z,0
2016-10-03T04:28:28.444Z,0
2016-10-03T04:29:28.499Z,0
2016-10-03T04:30:28.556Z,0
2016-10-03T04:31:28.638Z,0
2016-10-03T04:32:28.675Z,0
2016-10-03T04:33:28.731Z,0
2016-10-03T04:34:28.798Z,0
2016-10-03T04:35:28.843Z,0
2016-10-03T04:36:28.896Z,0
2016-10-03T04:37:28.952Z,0
2016-10-03T04:38:29.005Z,0
2016-10-03T04:39:29.062Z,0
2016-10-03T04:40:29.147Z,0
2016-10-03T04:41:29.212Z,0
2016-10-03T04:42:29.254Z,0
2016-10-03T04:43:29.299Z,0
2016-10-03T04:44:29.372Z,0
2016-10-03T04:45:29.411Z,0
2016-10-03T04:46:29.499Z,0
2016-10-03T04:47:29.547Z,0
2016-10-03T04:48:29.607Z,0
2016-10-03T04:49:29.653Z,0
2016-10-03T04:50:29.710Z,0
2016-10-03T04:51:29.757Z,0
2016-10-03T04:52:29.838Z,0
2016-10-03T04:53:29.880Z,0
2016-10-03T04:54:29.924Z,0
2016-10-03T04:55:29.979Z,0
2016-10-03T04:56:30.027Z,0
2016-10-03T04:57:30.105Z,0
2016-10-03T04:58:30.169Z,0
2016-10-03T04:59:30.232Z,4
2016-10-03T05:00:30.285Z,4
2016-10-03T05:01:30.348Z,4
2016-10-03T05:02:30.395Z,4
2016-10-03T05:03:30.441Z,0
2016-10-03T05:04:30.503Z,4
2016-10-03T05:05:30.564Z,4
2016-10-03T05:06:30.622Z,8
2016-10-03T05:07:30.689Z,4
2016-10-03T05:08:30.718Z,8
2016-10-03T05:09:30.796Z,8
2016-10-03T05:10:30.942Z,8
2016-10-03T05:11:30.901Z,12
2016-10-03T05:12:30.941Z,12
2016-10-03T05:13:31.001Z,16
2016-10-03T05:14:31.068Z,16
2016-10-03T05:15:31.145Z,20
2016-10-03T05:16:31.203Z,20
2016-10-03T05:17:31.241Z,24
2016-10-03T05:18:31.289Z,28
2016-10-03T05:19:31.367Z,32
2016-10-03T05:20:31.429Z,32
2016-10-03T05:21:31.467Z,32
2016-10-03T05:23:31.567Z,32
2016-10-03T05:24:31.632Z,36
2016-10-03T05:25:31.703Z,40
2016-10-03T05:26:31.760Z,44
2016-10-03T05:27:31.829Z,48
2016-10-03T05:28:31.876Z,52
2016-10-03T05:29:31.943Z,60
2016-10-03T05:30:31.981Z,64
2016-10-03T05:31:32.047Z,64
2016-10-03T05:32:32.103Z,64
2016-10-03T05:33:32.155Z,60
2016-10-03T05:34:32.209Z,56
2016-10-03T05:35:32.281Z,60
2016-10-03T05:36:32.310Z,72
2016-10-03T05:37:32.396Z,76
2016-10-03T05:38:32.452Z,76
2016-10-03T05:39:32.487Z,72
2016-10-03T05:40:32.556Z,72
2016-10-03T05:41:32.611Z,68
2016-10-03T05:42:32.662Z,64
2016-10-03T05:43:32.707Z,64
2016-10-03T05:44:32.837Z,68
2016-10-03T05:45:32.846Z,68
2016-10-03T05:46:32.914Z,72
2016-10-03T05:47:32.949Z,72
2016-10-03T05:48:33.005Z,72
2016-10-03T05:49:33.075Z,72
2016-10-03T05:50:33.129Z,80
2016-10-03T05:51:33.185Z,76
2016-10-03T05:52:33.257Z,84
2016-10-03T05:53:33.297Z,88
2016-10-03T05:54:33.371Z,92
2016-10-03T05:55:33.427Z,100
2016-10-03T05:56:33.464Z,112
2016-10-03T05:57:33.531Z,108
2016-10-03T05:58:33.578Z,124
2016-10-03T05:59:33.620Z,140
2016-10-03T06:00:33.690Z,132
2016-10-03T06:01:34.043Z,136
2016-10-03T06:02:33.794Z,152
2016-10-03T06:03:33.851Z,208
2016-10-03T06:04:33.920Z,252
2016-10-03T06:05:33.983Z,296
2016-10-03T06:06:34.039Z,304
2016-10-03T06:07:34.098Z,308
2016-10-03T06:08:34.161Z,344
2016-10-03T06:09:34.396Z,324
2016-10-03T06:10:34.486Z,296
2016-10-03T06:11:34.629Z,264
2016-10-03T06:12:34.402Z,256
2016-10-03T06:13:34.419Z,252
2016-10-03T06:14:34.496Z,288
2016-10-03T06:15:34.552Z,308
2016-10-03T06:16:34.600Z,328
2016-10-03T06:17:34.661Z,296
2016-10-03T06:18:34.717Z,260
2016-10-03T06:19:34.794Z,252
2016-10-03T06:20:34.816Z,236
2016-10-03T06:21:34.901Z,232
2016-10-03T06:22:34.946Z,228
2016-10-03T06:23:35.016Z,224
2016-10-03T06:24:35.052Z,240
2016-10-03T06:25:35.125Z,264
2016-10-03T06:26:35.179Z,332
2016-10-03T06:27:35.223Z,388
2016-10-03T06:28:35.288Z,416
2016-10-03T06:29:35.345Z,472
2016-10-03T06:30:35.401Z,512
2016-10-03T06:31:35.472Z,480
2016-10-03T06:32:35.499Z,452
2016-10-03T06:33:35.558Z,436
2016-10-03T06:34:35.639Z,452
2016-10-03T06:35:35.708Z,528
2016-10-03T06:36:35.737Z,572
2016-10-03T06:37:35.800Z,596
2016-10-03T06:38:36.058Z,584
2016-10-03T06:39:35.935Z,572
2016-10-03T06:40:35.971Z,592
2016-10-03T06:41:36.024Z,612
2016-10-03T06:42:36.089Z,624
2016-10-03T06:43:36.141Z,600
2016-10-03T06:44:36.211Z,556
2016-10-03T06:45:36.269Z,524
2016-10-03T06:46:36.317Z,512
2016-10-03T06:47:36.374Z,500
2016-10-03T06:48:36.437Z,488
2016-10-03T06:49:36.487Z,440
2016-10-03T06:50:36.521Z,436
2016-10-03T06:51:36.595Z,480
2016-10-03T06:52:36.647Z,516
2016-10-03T06:53:36.713Z,492
2016-10-03T06:54:36.769Z,496
2016-10-03T06:55:36.825Z,556
2016-10-03T06:56:36.869Z,552
2016-10-03T06:57:36.945Z,532
2016-10-03T06:58:36.982Z,560
2016-10-03T06:59:37.049Z,544
2016-10-03T07:00:37.116Z,524
2016-10-03T07:01:37.179Z,508
2016-10-03T07:02:37.237Z,488
2016-10-03T07:03:37.257Z,472
2016-10-03T07:04:37.321Z,436
2016-10-03T07:05:37.405Z,412
2016-10-03T07:06:37.454Z,412
2016-10-03T07:07:37.712Z,432
2016-10-03T07:08:37.553Z,504
2016-10-03T07:09:37.604Z,660
2016-10-03T07:10:37.673Z,788
2016-10-03T07:11:37.729Z,824
2016-10-03T07:12:37.781Z,844
2016-10-03T07:13:37.823Z,900
2016-10-03T07:14:37.909Z,944
2016-10-03T07:15:37.961Z,1016
2016-10-03T07:16:38.035Z,1132
2016-10-03T07:17:38.057Z,1244
2016-10-03T07:18:38.106Z,1248
2016-10-03T07:19:38.186Z,1244
2016-10-03T07:20:38.231Z,1200
2016-10-03T07:21:38.299Z,1112
2016-10-03T07:22:38.352Z,1044
2016-10-03T07:23:38.390Z,1028
2016-10-03T07:24:38.463Z,1016
2016-10-03T07:25:38.525Z,1044
2016-10-03T07:26:38.593Z,1068
2016-10-03T07:27:38.631Z,1040
2016-10-03T07:28:38.678Z,980
2016-10-03T07:29:38.763Z,944
2016-10-03T07:30:38.812Z,900
2016-10-03T07:31:38.894Z,884
2016-10-03T07:32:38.897Z,840
2016-10-03T07:33:39.174Z,788
2016-10-03T07:34:39.009Z,788
2016-10-03T07:35:39.090Z,796
2016-10-03T07:36:39.134Z,796
2016-10-03T07:37:39.223Z,788
2016-10-03T07:38:39.241Z,832
2016-10-03T07:39:39.317Z,828
2016-10-03T07:40:39.389Z,892
2016-10-03T07:41:39.426Z,924
2016-10-03T07:42:39.503Z,896
2016-10-03T07:43:39.549Z,920
2016-10-03T07:44:39.586Z,900
2016-10-03T07:45:39.653Z,836
2016-10-03T07:46:39.699Z,844
2016-10-03T07:47:39.772Z,876
2016-10-03T07:48:39.820Z,876
2016-10-03T07:49:39.870Z,964
2016-10-03T07:50:39.941Z,1084
2016-10-03T07:51:39.991Z,1020
2016-10-03T07:52:40.042Z,992
2016-10-03T07:53:40.111Z,1080
2016-10-03T07:54:40.159Z,1148
2016-10-03T07:55:40.219Z,1068
2016-10-03T07:56:40.266Z,1016
2016-10-03T07:57:40.366Z,1076
2016-10-03T07:58:40.398Z,1172
2016-10-03T07:59:40.503Z,1196
2016-10-03T08:00:40.704Z,1204
2016-10-03T08:01:40.742Z,1264
2016-10-03T08:02:40.849Z,1300
2016-10-03T08:03:40.676Z,1260
2016-10-03T08:04:40.742Z,1340
2016-10-03T08:05:40.776Z,1472
2016-10-03T08:06:40.863Z,1652
2016-10-03T08:07:40.907Z,1728
2016-10-03T08:08:40.954Z,1672
2016-10-03T08:09:41.020Z,1700
2016-10-03T08:10:41.085Z,1668
2016-10-03T08:11:41.114Z,1672
2016-10-03T08:12:41.191Z,1604
2016-10-03T08:13:41.241Z,1540
2016-10-03T08:14:41.506Z,1540
2016-10-03T08:15:41.361Z,1648
2016-10-03T08:16:41.396Z,1704
2016-10-03T08:17:41.458Z,1676
2016-10-03T08:18:41.516Z,1632
2016-10-03T08:19:41.577Z,1592
2016-10-03T08:20:41.623Z,1768
2016-10-03T08:21:41.708Z,1912
2016-10-03T08:22:41.747Z,1984
2016-10-03T08:23:41.824Z,1948
2016-10-03T08:24:41.871Z,1956
2016-10-03T08:25:41.917Z,2084
2016-10-03T08:26:41.998Z,1976
2016-10-03T08:27:42.022Z,1784
2016-10-03T08:28:42.298Z,1652
2016-10-03T08:29:42.152Z,1692
2016-10-03T08:30:42.227Z,1768
2016-10-03T08:31:42.265Z,1752
2016-10-03T08:32:42.335Z,1816
2016-10-03T08:33:42.387Z,1868
2016-10-03T08:34:42.447Z,1864
2016-10-03T08:35:42.497Z,1728
2016-10-03T08:36:42.563Z,1520
2016-10-03T08:37:42.614Z,1636
2016-10-03T08:38:42.671Z,1704
2016-10-03T08:39:42.740Z,1596
2016-10-03T08:40:42.775Z,1560
2016-10-03T08:41:42.835Z,1664
2016-10-03T08:42:42.901Z,1896
2016-10-03T08:43:42.968Z,2076
2016-10-03T08:44:43.016Z,2192
2016-10-03T08:45:43.080Z,2068
2016-10-03T08:46:43.109Z,1964
2016-10-03T08:47:43.189Z,2024
2016-10-03T08:48:43.219Z,2248
2016-10-03T08:49:43.282Z,2648
2016-10-03T08:50:43.347Z,2560
2016-10-03T08:51:43.415Z,2608
2016-10-03T08:52:43.453Z,2520
2016-10-03T08:53:43.514Z,2348
2016-10-03T08:54:43.598Z,2292
2016-10-03T08:55:43.713Z,2232
2016-10-03T08:56:43.675Z,2164
2016-10-03T08:57:43.755Z,2488
2016-10-03T08:58:43.811Z,2656
2016-10-03T08:59:43.872Z,2444
2016-10-03T09:00:43.937Z,2232
2016-10-03T09:01:43.957Z,2144
2016-10-03T09:02:44.031Z,2112
2016-10-03T09:03:44.101Z,2136
2016-10-03T09:04:44.159Z,2096
2016-10-03T09:05:44.215Z,2108
2016-10-03T09:06:44.242Z,2096
2016-10-03T09:07:44.317Z,2060
2016-10-03T09:08:44.370Z,1984
2016-10-03T09:09:44.455Z,1920
2016-10-03T09:10:44.502Z,2008
2016-10-03T09:11:44.559Z,2168
2016-10-03T09:12:44.605Z,2308
2016-10-03T09:13:44.682Z,2348
2016-10-03T09:14:44.731Z,2336
2016-10-03T09:15:44.767Z,2372
2016-10-03T09:16:44.838Z,2288
2016-10-03T09:17:44.882Z,2288
2016-10-03T09:18:44.947Z,2380
2016-10-03T09:19:45.010Z,2724
2016-10-03T09:20:45.082Z,2492
2016-10-03T09:21:45.133Z,2652
2016-10-03T09:22:45.174Z,2484
2016-10-03T09:23:45.236Z,2292
2016-10-03T09:24:45.308Z,2176
2016-10-03T09:25:45.337Z,2480
2016-10-03T09:26:45.422Z,2548
2016-10-03T09:27:45.460Z,2584
2016-10-03T09:28:45.520Z,2436
2016-10-03T09:29:45.584Z,2516
2016-10-03T09:30:45.638Z,2796
2016-10-03T09:31:45.703Z,2820
2016-10-03T09:32:45.768Z,2884
2016-10-03T09:33:45.804Z,3028
2016-10-03T09:34:45.894Z,2904
2016-10-03T09:35:45.926Z,2860
2016-10-03T09:36:45.999Z,2676
2016-10-03T09:37:46.029Z,3140
2016-10-03T09:38:46.097Z,3372
2016-10-03T09:39:46.159Z,2924
2016-10-03T09:40:46.215Z,2964
2016-10-03T09:41:46.289Z,3864
2016-10-03T09:42:46.330Z,3100
2016-10-03T09:43:46.379Z,2848
2016-10-03T09:44:46.453Z,2904
2016-10-03T09:45:46.515Z,3000
2016-10-03T09:46:46.563Z,3308
2016-10-03T09:47:46.620Z,3284
2016-10-03T09:48:46.697Z,3392
2016-10-03T09:49:46.730Z,3136
2016-10-03T09:50:46.791Z,3116
2016-10-03T09:51:46.863Z,3240
2016-10-03T09:52:46.926Z,3132
2016-10-03T09:53:46.979Z,2764
2016-10-03T09:54:47.021Z,2552
2016-10-03T09:55:47.099Z,2736
2016-10-03T09:56:47.155Z,2812
2016-10-03T09:57:47.181Z,2824
2016-10-03T09:58:47.254Z,3260
2016-10-03T09:59:47.308Z,3284
2016-10-03T10:00:47.376Z,3164
2016-10-03T10:01:47.436Z,3224
2016-10-03T10:02:47.479Z,3108
2016-10-03T10:03:47.545Z,3024
2016-10-03T10:04:47.600Z,3080
2016-10-03T10:05:47.643Z,2972
2016-10-03T10:06:47.718Z,2948
2016-10-03T10:07:47.782Z,2944
2016-10-03T10:08:47.832Z,3040
2016-10-03T10:09:47.868Z,3140
2016-10-03T10:10:47.948Z,3228
2016-10-03T10:11:47.993Z,3052
2016-10-03T10:12:48.055Z,3100
2016-10-03T10:13:48.124Z,2940
2016-10-03T10:14:48.168Z,2640
2016-10-03T10:15:48.239Z,2540
2016-10-03T10:16:48.300Z,2416
2016-10-03T10:17:48.362Z,2464
2016-10-03T10:18:48.411Z,2844
2016-10-03T10:19:48.451Z,3044
2016-10-03T10:20:48.517Z,3720
2016-10-03T10:21:48.574Z,3304
2016-10-03T10:22:48.632Z,4312
2016-10-03T10:23:48.701Z,4628
2016-10-03T10:24:48.730Z,3788
2016-10-03T10:25:48.815Z,3588
2016-10-03T10:26:48.854Z,4052
2016-10-03T10:27:48.914Z,4448
2016-10-03T10:28:48.964Z,4716
2016-10-03T10:29:49.019Z,3764
2016-10-03T10:30:49.103Z,6588
2016-10-03T10:31:49.154Z,3716
2016-10-03T10:32:49.219Z,4032
2016-10-03T10:33:49.255Z,4008
2016-10-03T10:34:49.325Z,4248
2016-10-03T10:35:49.369Z,4404
2016-10-03T10:36:49.463Z,3920
2016-10-03T10:37:49.517Z,3852
2016-10-03T10:38:49.554Z,3672
2016-10-03T10:39:49.618Z,3672
2016-10-03T10:40:49.671Z,3408
2016-10-03T10:41:49.734Z,4936
2016-10-03T10:42:49.791Z,6520
2016-10-03T10:43:49.841Z,3796
2016-10-03T10:44:49.920Z,3040
2016-10-03T10:45:49.959Z,3872
2016-10-03T10:46:50.016Z,3740
2016-10-03T10:47:50.078Z,3360
2016-10-03T10:48:50.137Z,2952
2016-10-03T10:49:50.185Z,3428
2016-10-03T10:50:50.238Z,3848
2016-10-03T10:51:50.323Z,3552
2016-10-03T10:52:50.345Z,3292
2016-10-03T10:53:50.402Z,3172
2016-10-03T10:54:50.468Z,3076
2016-10-03T10:55:50.522Z,2464
2016-10-03T10:56:50.585Z,2640
2016-10-03T10:57:50.660Z,2892
2016-10-03T10:58:50.707Z,2572
2016-10-03T10:59:50.769Z,2376
2016-10-03T11:00:50.840Z,2400
2016-10-03T11:01:50.890Z,2304
2016-10-03T11:02:50.929Z,2384
2016-10-03T11:03:50.991Z,2932
2016-10-03T11:04:51.057Z,3228
2016-10-03T11:05:51.114Z,3376
2016-10-03T11:06:51.165Z,3488
2016-10-03T11:07:51.220Z,3604
2016-10-03T11:08:51.283Z,2900
2016-10-03T11:09:51.334Z,3580
2016-10-03T11:10:51.415Z,3020
2016-10-03T11:11:51.449Z,2696
2016-10-03T11:12:51.528Z,2588
2016-10-03T11:13:51.564Z,2468
2016-10-03T11:14:51.645Z,2416
2016-10-03T11:15:51.681Z,3060
2016-10-03T11:16:51.733Z,2884
2016-10-03T11:17:51.798Z,2832
2016-10-03T11:18:51.856Z,2568
2016-10-03T11:19:51.917Z,2560
2016-10-03T11:20:51.987Z,2880
2016-10-03T11:21:52.026Z,3228
2016-10-03T11:22:52.074Z,5712
2016-10-03T11:23:52.140Z,3260
2016-10-03T11:24:52.186Z,3464
2016-10-03T11:25:52.257Z,3440
2016-10-03T11:26:52.335Z,2832
2016-10-03T11:27:52.375Z,2824
2016-10-03T11:28:52.413Z,2764
2016-10-03T11:29:52.505Z,2940
2016-10-03T11:30:52.554Z,3740
2016-10-03T11:31:52.619Z,2764
2016-10-03T11:32:52.662Z,2788
2016-10-03T11:33:52.725Z,3260
2016-10-03T11:34:52.763Z,11632
2016-10-03T11:35:52.825Z,3852
2016-10-03T11:36:52.899Z,3176
2016-10-03T11:37:52.959Z,2832
2016-10-03T11:38:52.987Z,2704
2016-10-03T11:39:53.063Z,2600
2016-10-03T11:40:53.097Z,2696
2016-10-03T11:41:53.193Z,2540
2016-10-03T11:42:53.213Z,2964
2016-10-03T11:43:53.272Z,12100
2016-10-03T11:44:53.347Z,8508
2016-10-03T11:45:53.386Z,3780
2016-10-03T11:46:53.444Z,5328
2016-10-03T11:47:53.521Z,9792
2016-10-03T11:48:53.558Z,3816
2016-10-03T11:49:53.661Z,3100
2016-10-03T11:50:53.999Z,3416
2016-10-03T11:51:53.774Z,3572
2016-10-03T11:52:53.799Z,3660
2016-10-03T11:53:53.877Z,4120
2016-10-03T11:54:53.934Z,4124
2016-10-03T11:55:53.962Z,6172
2016-10-03T11:56:54.028Z,3760
2016-10-03T11:57:54.072Z,3812
2016-10-03T11:58:54.150Z,3612
2016-10-03T11:59:54.202Z,2988
2016-10-03T12:00:54.265Z,3188
2016-10-03T12:01:54.323Z,3504
2016-10-03T12:02:54.379Z,4124
2016-10-03T12:03:54.436Z,4772
2016-10-03T12:04:54.485Z,5264
2016-10-03T12:05:54.553Z,5924
2016-10-03T12:06:54.614Z,6120
2016-10-03T12:07:54.651Z,8504
2016-10-03T12:08:54.720Z,4532
2016-10-03T12:09:54.785Z,2580
2016-10-03T12:10:54.824Z,2256
2016-10-03T12:11:54.883Z,1928
2016-10-03T12:12:54.967Z,1884
2016-10-03T12:13:55.005Z,2172
2016-10-03T12:14:55.043Z,2712
2016-10-03T12:15:55.138Z,3016
2016-10-03T12:16:55.196Z,2484
2016-10-03T12:17:55.254Z,2296
2016-10-03T12:18:55.279Z,2228
2016-10-03T12:19:55.333Z,2188
2016-10-03T12:20:55.395Z,2048
2016-10-03T12:21:55.468Z,1916
2016-10-03T12:22:55.534Z,1972
2016-10-03T12:23:55.577Z,1920
2016-10-03T12:24:55.641Z,1824
2016-10-03T12:25:55.692Z,1924
2016-10-03T12:26:55.737Z,2032
2016-10-03T12:27:55.818Z,1948
2016-10-03T12:28:55.880Z,1932
2016-10-03T12:29:55.932Z,2228
2016-10-03T12:30:55.974Z,2504
2016-10-03T12:31:56.368Z,2024
2016-10-03T12:32:56.110Z,2004
2016-10-03T12:33:56.161Z,1940
2016-10-03T12:34:56.218Z,2428
2016-10-03T12:35:56.285Z,2164
2016-10-03T12:36:56.343Z,2192
2016-10-03T12:37:56.389Z,2200
2016-10-03T12:38:56.446Z,2040
2016-10-03T12:39:56.499Z,1916
2016-10-03T12:40:56.538Z,2240
2016-10-03T12:41:56.612Z,2328
2016-10-03T12:42:56.701Z,3672
2016-10-03T12:43:56.744Z,2796
2016-10-03T12:44:56.784Z,2520
2016-10-03T12:45:56.828Z,2512
2016-10-03T12:46:56.906Z,1448
2016-10-03T12:47:56.952Z,1984
2016-10-03T12:48:56.998Z,2440
2016-10-03T12:49:57.085Z,2928
2016-10-03T12:50:57.127Z,5152
2016-10-03T12:51:57.194Z,7352
2016-10-03T12:52:57.263Z,5056
2016-10-03T12:53:57.307Z,7872
2016-10-03T12:54:57.362Z,6096
2016-10-03T12:55:57.422Z,5236
2016-10-03T12:56:57.471Z,1768
2016-10-03T12:57:57.536Z,1764
2016-10-03T12:58:57.609Z,2192
2016-10-03T12:59:57.666Z,2404
2016-10-03T13:00:57.700Z,2028
2016-10-03T13:01:57.783Z,2228
2016-10-03T13:02:57.828Z,1904
2016-10-03T13:03:57.898Z,1796
2016-10-03T13:04:57.951Z,2348
2016-10-03T13:05:57.978Z,2012
2016-10-03T13:06:58.034Z,1536
2016-10-03T13:07:58.113Z,1712
2016-10-03T13:08:58.171Z,1636
2016-10-03T13:09:58.207Z,1420
2016-10-03T13:10:58.301Z,1404
2016-10-03T13:11:58.330Z,1224
2016-10-03T13:12:58.389Z,1440
2016-10-03T13:13:58.443Z,1612
2016-10-03T13:14:58.517Z,1584
2016-10-03T13:15:58.773Z,1400
2016-10-03T13:16:58.615Z,1680
2016-10-03T13:17:58.681Z,2284
2016-10-03T13:18:58.760Z,1884
2016-10-03T13:19:58.781Z,2040
2016-10-03T13:20:58.846Z,1480
2016-10-03T13:21:58.911Z,1448
2016-10-03T13:22:58.955Z,1312
2016-10-03T13:23:59.023Z,2136
2016-10-03T13:24:59.066Z,2212
2016-10-03T13:25:59.154Z,1584
2016-10-03T13:26:59.197Z,1884
2016-10-03T13:27:59.274Z,1680
2016-10-03T13:28:59.325Z,1924
2016-10-03T13:29:59.368Z,1992
2016-10-03T13:30:59.426Z,1728
2016-10-03T13:31:59.490Z,2636
2016-10-03T13:32:59.561Z,2628
2016-10-03T13:33:59.611Z,2096
2016-10-03T13:34:59.676Z,2512
2016-10-03T13:35:59.713Z,2904
2016-10-03T13:37:00.093Z,2184
2016-10-03T13:37:59.814Z,2084
2016-10-03T13:38:59.870Z,4504
2016-10-03T13:39:59.940Z,4120
2016-10-03T13:41:00.020Z,5236
2016-10-03T13:42:00.061Z,3332
2016-10-03T13:43:00.110Z,4280
2016-10-03T13:44:00.183Z,3636
2016-10-03T13:45:00.230Z,4372
2016-10-03T13:46:00.279Z,3828
2016-10-03T13:47:00.343Z,2328
2016-10-03T13:48:00.391Z,2996
2016-10-03T13:49:00.662Z,2708
2016-10-03T13:50:00.791Z,2288
2016-10-03T13:51:00.585Z,1460
2016-10-03T13:52:00.641Z,1024
2016-10-03T13:53:00.687Z,1608
2016-10-03T13:54:00.729Z,2792
2016-10-03T13:55:00.801Z,3184
2016-10-03T13:56:00.844Z,1620
2016-10-03T13:57:00.938Z,1360